Time;durP1;ratioP1;P1;durP2;ratioP2;P2;SDS_P1;SDS_P2;PMS_P1;PMS_P2;Temp;Humidity;BMP_temperature;BMP_pressure;BME280_temperature;BME280_humidity;BME280_pressure;Samples;Min_cycle;Max_cycle;Signal;HPM_P1;HPM_P2
2022/08/19 00:00:51;;;;;;;3.85;3.20;;;24.60;58.40;;;;;;5169743;27;45187;-69
2022/08/19 00:03:18;;;;;;;3.22;3.03;;;24.60;58.40;;;;;;5169694;27;45305;-69
2022/08/19 00:05:45;;;;;;;3.28;3.05;;;24.60;58.40;;;;;;5169422;27;45322;-69
2022/08/19 00:08:12;;;;;;;3.13;2.92;;;24.60;58.40;;;;;;5169378;27;45220;-69
2022/08/19 00:10:38;;;;;;;3.20;3.00;;;24.50;58.30;;;;;;5169541;27;45129;-69
2022/08/19 00:13:07;;;;;;;3.30;3.00;;;24.50;58.30;;;;;;5169461;27;45394;-69
2022/08/19 00:15:33;;;;;;;3.10;2.90;;;24.50;58.30;;;;;;5169157;27;45426;-70
2022/08/19 00:18:00;;;;;;;3.08;2.88;;;24.50;58.10;;;;;;5169297;27;45435;-70
2022/08/19 00:20:27;;;;;;;3.10;2.90;;;24.50;58.30;;;;;;5169460;27;45176;-69
2022/08/19 00:22:55;;;;;;;3.35;3.08;;;24.50;58.20;;;;;;5169495;27;45115;-70
2022/08/19 00:25:22;;;;;;;3.17;2.90;;;24.50;58.10;;;;;;5154387;27;45547;-70
2022/08/19 00:27:49;;;;;;;3.38;3.08;;;24.50;58.00;;;;;;5148169;27;45235;-69
2022/08/19 00:30:17;;;;;;;3.35;3.15;;;24.50;57.90;;;;;;5156981;27;45290;-69
2022/08/19 00:32:44;;;;;;;3.38;3.08;;;24.50;57.80;;;;;;5169362;27;45152;-70
2022/08/19 00:35:11;;;;;;;3.30;3.05;;;24.50;57.80;;;;;;5168976;27;47617;-69
2022/08/19 00:37:38;;;;;;;3.00;2.80;;;24.50;57.80;;;;;;5168701;27;45368;-70
2022/08/19 00:40:06;;;;;;;3.10;2.90;;;24.40;57.70;;;;;;5169182;27;45415;-69
2022/08/19 00:42:33;;;;;;;3.08;2.83;;;24.50;57.80;;;;;;5169162;27;45481;-70
2022/08/19 00:44:59;;;;;;;2.72;2.60;;;24.40;57.70;;;;;;5168809;27;45321;-70
2022/08/19 00:47:28;;;;;;;3.20;2.90;;;24.40;57.70;;;;;;5168810;27;45199;-70
2022/08/19 00:49:56;;;;;;;3.10;2.90;;;24.40;57.70;;;;;;5169125;27;45390;-69
2022/08/19 00:52:25;;;;;;;3.30;3.00;;;24.40;57.60;;;;;;5169258;27;45106;-69
2022/08/19 00:54:52;;;;;;;3.50;3.08;;;24.40;57.60;;;;;;5168712;27;46542;-69
2022/08/19 00:57:20;;;;;;;2.83;2.63;;;24.40;57.60;;;;;;5168704;27;45332;-69
2022/08/19 00:59:48;;;;;;;3.40;3.10;;;24.40;57.60;;;;;;5168903;27;45219;-69
2022/08/19 01:02:15;;;;;;;2.88;2.67;;;24.40;57.50;;;;;;5168930;27;45410;-69
2022/08/19 01:04:43;;;;;;;2.88;2.67;;;24.40;57.60;;;;;;5168578;27;45545;-69
2022/08/19 01:07:10;;;;;;;3.17;2.90;;;24.40;57.60;;;;;;5168552;27;45359;-70
2022/08/19 01:09:37;;;;;;;3.65;2.95;;;24.40;57.50;;;;;;5168758;27;45428;-69
2022/08/19 01:12:04;;;;;;;3.30;2.97;;;24.40;57.50;;;;;;5168875;27;45391;-70
2022/08/19 01:14:31;;;;;;;3.45;3.10;;;24.40;57.50;;;;;;5168408;27;46346;-69
2022/08/19 01:16:59;;;;;;;3.53;3.22;;;24.40;57.50;;;;;;5168507;27;45259;-69
2022/08/19 01:19:28;;;;;;;3.28;3.08;;;24.30;57.40;;;;;;5168593;27;45285;-69
2022/08/19 01:21:58;;;;;;;3.20;3.00;;;24.40;57.50;;;;;;5168812;27;45198;-69
2022/08/19 01:24:27;;;;;;;2.75;2.55;;;24.40;57.60;;;;;;5161778;27;45235;-69
2022/08/19 01:26:54;;;;;;;3.17;2.97;;;24.30;57.40;;;;;;5149950;27;45247;-69
2022/08/19 01:29:21;;;;;;;2.88;2.67;;;24.30;57.40;;;;;;5152029;27;45251;-69
2022/08/19 01:31:48;;;;;;;3.15;2.95;;;24.30;57.50;;;;;;5172340;27;45351;-69
2022/08/19 01:34:15;;;;;;;3.10;2.90;;;24.30;57.40;;;;;;5171892;27;45316;-69
2022/08/19 01:36:45;;;;;;;2.97;2.72;;;24.30;57.40;;;;;;5171764;27;45225;-70
2022/08/19 01:39:13;;;;;;;3.47;3.17;;;24.30;57.70;;;;;;5171995;27;45329;-69
2022/08/19 01:41:41;;;;;;;3.08;2.88;;;24.30;57.50;;;;;;5172131;27;45411;-69
2022/08/19 01:44:09;;;;;;;3.00;2.80;;;24.30;57.40;;;;;;5171602;27;46658;-70
2022/08/19 01:46:36;;;;;;;3.38;3.05;;;24.30;57.40;;;;;;5171736;27;45184;-69
2022/08/19 01:49:03;;;;;;;2.90;2.70;;;24.30;57.40;;;;;;5171862;27;45438;-70
2022/08/19 01:51:30;;;;;;;3.63;3.15;;;24.30;57.30;;;;;;5172064;27;45361;-70
2022/08/19 01:53:56;;;;;;;3.30;3.00;;;24.30;57.30;;;;;;5171561;27;46537;-70
2022/08/19 01:56:23;;;;;;;3.30;3.03;;;24.30;57.20;;;;;;5171564;27;45145;-70
2022/08/19 01:58:58;;;;;;;3.22;3.03;;;24.30;57.30;;;;;;5171688;27;45145;-70
2022/08/19 02:01:25;;;;;;;3.60;3.30;;;24.30;57.20;;;;;;5171775;27;45236;-70
2022/08/19 02:03:53;;;;;;;3.38;3.08;;;24.30;57.20;;;;;;5171306;27;46381;-69
2022/08/19 02:06:20;;;;;;;3.15;2.95;;;24.30;57.20;;;;;;5171442;27;45325;-69
2022/08/19 02:08:47;;;;;;;3.38;3.10;;;24.30;57.20;;;;;;5171810;27;45323;-69
2022/08/19 02:11:20;;;;;;;3.60;3.30;;;24.30;57.20;;;;;;5171684;27;45398;-70
2022/08/19 02:13:46;;;;;;;3.35;3.05;;;24.30;57.20;;;;;;5168501;27;45305;-70
2022/08/19 02:16:15;;;;;;;3.50;3.20;;;24.20;57.10;;;;;;5171224;27;45155;-69
2022/08/19 02:18:41;;;;;;;3.30;3.00;;;24.20;57.10;;;;;;5171301;27;45229;-70
2022/08/19 02:21:08;;;;;;;3.15;2.80;;;24.20;57.20;;;;;;5171426;27;45251;-70
2022/08/19 02:23:35;;;;;;;3.00;2.80;;;24.20;57.10;;;;;;5170986;27;46431;-70
2022/08/19 02:26:02;;;;;;;2.88;2.67;;;24.20;57.00;;;;;;5150559;27;45248;-69
2022/08/19 02:28:29;;;;;;;2.83;2.63;;;24.20;57.00;;;;;;5150143;27;45175;-69
2022/08/19 02:30:55;;;;;;;3.00;2.80;;;24.20;57.10;;;;;;5164872;27;45129;-69
2022/08/19 02:33:23;;;;;;;3.10;2.90;;;24.20;56.90;;;;;;5170831;27;46417;-69
2022/08/19 02:35:50;;;;;;;3.05;2.85;;;24.20;57.10;;;;;;5170863;27;45315;-69
2022/08/19 02:38:25;;;;;;;3.15;2.95;;;24.20;56.90;;;;;;5170745;27;45220;-69
2022/08/19 02:40:53;;;;;;;3.40;3.10;;;24.20;57.00;;;;;;5171194;27;45530;-69
2022/08/19 02:43:20;;;;;;;3.00;2.80;;;24.10;56.90;;;;;;5170683;27;46389;-69
2022/08/19 02:45:48;;;;;;;2.90;2.70;;;24.20;57.10;;;;;;5171094;27;45303;-69
2022/08/19 02:48:16;;;;;;;3.20;3.00;;;24.20;57.00;;;;;;5170907;27;45325;-69
2022/08/19 02:50:44;;;;;;;3.10;2.85;;;24.20;57.00;;;;;;5171206;27;45614;-69
2022/08/19 02:53:11;;;;;;;3.17;2.97;;;24.20;57.00;;;;;;5170573;27;47388;-69
2022/08/19 02:55:43;;;;;;;3.20;3.00;;;24.10;56.90;;;;;;5170578;27;45325;-69
2022/08/19 02:58:10;;;;;;;3.20;3.00;;;24.10;56.90;;;;;;5170738;27;45183;-69
2022/08/19 03:00:42;;;;;;;3.28;3.08;;;24.10;57.00;;;;;;5170858;27;45611;-69
2022/08/19 03:03:08;;;;;;;3.35;3.05;;;24.10;56.90;;;;;;5170358;27;45490;-69
2022/08/19 03:05:35;;;;;;;3.53;3.33;;;24.10;56.90;;;;;;5167778;27;45209;-69
2022/08/19 03:08:05;;;;;;;3.45;3.15;;;24.10;57.00;;;;;;5170516;27;45206;-69
2022/08/19 03:10:32;;;;;;;2.97;2.78;;;24.10;56.90;;;;;;5170642;27;45213;-69
2022/08/19 03:12:59;;;;;;;3.47;3.20;;;24.10;56.90;;;;;;5170173;27;46666;-69
2022/08/19 03:15:26;;;;;;;3.33;3.03;;;24.10;56.90;;;;;;5170344;27;45190;-69
2022/08/19 03:17:52;;;;;;;3.40;3.10;;;24.10;56.90;;;;;;5170634;27;45191;-69
2022/08/19 03:20:19;;;;;;;3.35;3.15;;;24.10;56.80;;;;;;5170578;27;45346;-69
2022/08/19 03:22:46;;;;;;;3.40;3.00;;;24.10;56.90;;;;;;5170130;27;47242;-69
2022/08/19 03:25:14;;;;;;;3.13;2.90;;;24.10;56.90;;;;;;5156664;27;45267;-69
2022/08/19 03:27:41;;;;;;;3.08;2.88;;;24.10;56.80;;;;;;5149176;27;45274;-69
2022/08/19 03:30:09;;;;;;;3.15;2.95;;;24.10;56.80;;;;;;5156936;27;45454;-69
2022/08/19 03:32:36;;;;;;;3.25;2.97;;;24.10;56.70;;;;;;5170025;27;45447;-69
2022/08/19 03:35:03;;;;;;;3.65;3.35;;;24.10;56.70;;;;;;5169939;27;45198;-69
2022/08/19 03:37:29;;;;;;;3.10;2.90;;;24.10;56.80;;;;;;5169835;27;45206;-69
2022/08/19 03:39:56;;;;;;;3.55;3.25;;;24.10;56.80;;;;;;5170243;27;45227;-69
2022/08/19 03:42:26;;;;;;;3.28;2.97;;;24.00;56.80;;;;;;5169794;27;45487;-69
2022/08/19 03:44:53;;;;;;;3.35;3.05;;;24.00;56.80;;;;;;5169719;27;45249;-69
2022/08/19 03:47:20;;;;;;;3.30;3.00;;;24.00;56.80;;;;;;5169880;27;45159;-69
2022/08/19 03:49:47;;;;;;;3.45;3.25;;;24.00;56.70;;;;;;5169366;27;45246;-69
2022/08/19 03:52:13;;;;;;;2.88;2.67;;;24.00;56.70;;;;;;5169550;27;46402;-69
2022/08/19 03:54:40;;;;;;;3.22;2.92;;;24.00;56.80;;;;;;5169662;27;45270;-70
2022/08/19 03:57:08;;;;;;;3.60;3.10;;;24.00;56.70;;;;;;5169773;27;45227;-69
2022/08/19 03:59:37;;;;;;;3.25;2.95;;;24.00;56.80;;;;;;5169943;27;45175;-69
2022/08/19 04:02:08;;;;;;;3.38;3.08;;;24.00;56.70;;;;;;5169420;27;46376;-70
2022/08/19 04:04:35;;;;;;;3.33;3.13;;;24.00;56.80;;;;;;5169420;27;45186;-69
2022/08/19 04:07:02;;;;;;;2.95;2.75;;;24.00;56.60;;;;;;5169571;27;45213;-69
2022/08/19 04:09:29;;;;;;;3.30;2.97;;;24.00;56.70;;;;;;5169788;27;45264;-69
2022/08/19 04:11:57;;;;;;;3.15;2.95;;;24.00;56.70;;;;;;5169304;27;45303;-69
2022/08/19 04:14:25;;;;;;;3.15;2.95;;;24.00;56.60;;;;;;5169432;27;45210;-69
2022/08/19 04:16:53;;;;;;;3.20;3.00;;;24.00;56.50;;;;;;5169492;27;45209;-69
2022/08/19 04:19:20;;;;;;;3.75;3.22;;;24.00;56.50;;;;;;5169617;27;45380;-69
2022/08/19 04:21:48;;;;;;;3.05;2.83;;;24.00;56.50;;;;;;5169122;27;46670;-69
2022/08/19 04:24:15;;;;;;;3.13;2.92;;;24.00;56.40;;;;;;5164063;27;45197;-69
2022/08/19 04:26:42;;;;;;;3.05;2.85;;;24.00;56.30;;;;;;5148299;27;45189;-69
2022/08/19 04:29:11;;;;;;;3.17;2.97;;;24.00;56.40;;;;;;5148495;27;45273;-69
2022/08/19 04:31:38;;;;;;;3.20;2.97;;;23.90;56.50;;;;;;5168677;27;45383;-69
2022/08/19 04:34:07;;;;;;;3.40;3.15;;;24.00;56.50;;;;;;5169076;27;45233;-69
2022/08/19 04:36:34;;;;;;;2.85;2.65;;;24.00;56.50;;;;;;5168989;27;45457;-68
2022/08/19 04:39:07;;;;;;;3.00;2.80;;;23.90;56.50;;;;;;5169389;27;45263;-70
2022/08/19 04:44:18;;;;;;;3.20;2.90;;;24.00;56.40;;;;;;5169156;27;45253;-69
2022/08/19 04:46:46;;;;;;;3.40;3.10;;;24.00;56.40;;;;;;5169045;27;45311;-69
2022/08/19 04:49:16;;;;;;;3.28;2.97;;;23.90;56.40;;;;;;5169164;27;45297;-69
2022/08/19 04:51:44;;;;;;;3.25;2.95;;;23.90;56.40;;;;;;5168767;27;45462;-69
2022/08/19 04:54:10;;;;;;;3.15;2.95;;;23.90;56.40;;;;;;5168713;27;45313;-69
2022/08/19 04:56:37;;;;;;;3.17;2.92;;;23.90;56.30;;;;;;5168989;27;45305;-69
2022/08/19 04:59:04;;;;;;;3.42;3.22;;;23.90;56.30;;;;;;5168979;27;45185;-69
2022/08/19 05:01:32;;;;;;;2.97;2.78;;;23.90;56.40;;;;;;5170516;27;46720;-69
2022/08/19 05:04:00;;;;;;;3.08;2.80;;;23.90;56.30;;;;;;5172339;27;45375;-69
2022/08/19 05:06:33;;;;;;;3.38;3.10;;;23.90;56.40;;;;;;5172655;27;45281;-69
2022/08/19 05:09:00;;;;;;;2.95;2.75;;;23.90;56.40;;;;;;5172645;27;45354;-69
2022/08/19 05:11:28;;;;;;;3.17;2.97;;;23.90;56.40;;;;;;5172228;27;46737;-69
2022/08/19 05:13:55;;;;;;;3.30;3.10;;;23.90;57.00;;;;;;5172358;27;45107;-69
2022/08/19 05:16:22;;;;;;;3.28;2.97;;;23.90;56.30;;;;;;5172445;27;45179;-69
2022/08/19 05:24:19;;;;;;;3.40;3.20;;;23.90;56.30;;;;;;5166835;27;45241;-69
2022/08/19 05:26:48;;;;;;;2.90;2.70;;;23.90;56.10;;;;;;5151215;27;45292;-69
2022/08/19 05:29:16;;;;;;;3.50;3.20;;;23.90;56.20;;;;;;5151327;27;45172;-70
2022/08/19 05:31:43;;;;;;;3.20;3.00;;;23.90;56.10;;;;;;5171847;27;46420;-69
2022/08/19 05:34:10;;;;;;;3.20;3.00;;;23.90;56.20;;;;;;5171980;27;45263;-69
2022/08/19 05:36:39;;;;;;;3.50;3.20;;;23.90;56.20;;;;;;5171741;27;45255;-69
2022/08/19 05:39:06;;;;;;;3.55;3.30;;;23.90;56.20;;;;;;5172167;27;45197;-69
2022/08/19 05:41:33;;;;;;;3.10;2.90;;;23.90;56.20;;;;;;5171651;27;45224;-69
2022/08/19 05:44:01;;;;;;;3.38;3.15;;;23.90;56.20;;;;;;5171727;27;45337;-69
2022/08/19 05:46:28;;;;;;;3.38;3.17;;;23.90;56.10;;;;;;5171986;27;45262;-69
2022/08/19 05:48:56;;;;;;;2.70;2.50;;;23.90;56.00;;;;;;5172046;27;45339;-69
2022/08/19 05:51:23;;;;;;;3.30;3.10;;;23.90;56.00;;;;;;5171583;27;46653;-69
2022/08/19 05:53:51;;;;;;;3.40;3.10;;;23.90;56.00;;;;;;5171621;27;45373;-69
2022/08/19 05:56:18;;;;;;;2.97;2.78;;;23.90;55.90;;;;;;5171580;27;45366;-69
2022/08/19 05:58:45;;;;;;;3.33;3.10;;;23.90;55.90;;;;;;5171877;27;45488;-69
2022/08/19 06:01:14;;;;;;;3.00;2.80;;;23.90;56.00;;;;;;5171503;27;47352;-69
2022/08/19 06:03:40;;;;;;;3.33;2.63;;;23.90;56.00;;;;;;5171483;27;45326;-70
2022/08/19 06:06:08;;;;;;;3.60;3.38;;;23.90;55.90;;;;;;5171847;27;45406;-69
2022/08/19 06:08:36;;;;;;;3.78;3.47;;;23.90;56.90;;;;;;5171888;27;45312;-70
2022/08/19 06:11:19;;;;;;;3.60;3.30;;;23.90;57.50;;;;;;5171023;27;45686;-70
2022/08/19 06:13:47;;;;;;;3.85;3.55;;;23.90;56.70;;;;;;5171394;27;45203;-70
2022/08/19 06:16:19;;;;;;;4.38;3.97;;;23.90;57.80;;;;;;5171444;27;45168;-69
2022/08/19 06:18:46;;;;;;;4.15;3.70;;;23.90;58.40;;;;;;5171612;27;45265;-70
2022/08/19 06:21:12;;;;;;;5.88;3.75;;;23.90;58.30;;;;;;5171204;27;45463;-69
2022/08/19 06:23:40;;;;;;;4.00;3.70;;;23.90;58.90;;;;;;5171176;27;45176;-69
2022/08/19 06:26:07;;;;;;;4.40;4.00;;;23.90;59.20;;;;;;5129444;27;45350;-69
2022/08/19 06:28:35;;;;;;;5.35;4.13;;;23.90;59.70;;;;;;5129516;27;45438;-70
2022/08/19 06:31:07;;;;;;;4.30;3.88;;;23.90;60.00;;;;;;5160214;27;45539;-69
2022/08/19 06:33:34;;;;;;;4.65;4.03;;;23.90;59.70;;;;;;5170916;27;45259;-69
2022/08/19 06:36:00;;;;;;;4.75;4.35;;;23.90;60.20;;;;;;5170889;27;45259;-70
2022/08/19 06:38:27;;;;;;;4.30;3.90;;;23.90;60.40;;;;;;5171324;27;45121;-69
2022/08/19 06:41:01;;;;;;;4.10;3.80;;;23.90;60.20;;;;;;5170890;27;46423;-69
2022/08/19 06:43:28;;;;;;;5.15;4.47;;;23.90;60.00;;;;;;5170997;27;45137;-69
2022/08/19 06:45:56;;;;;;;4.60;4.20;;;23.90;60.40;;;;;;5170907;27;45459;-70
2022/08/19 06:48:23;;;;;;;4.57;4.18;;;23.90;60.90;;;;;;5171089;27;45500;-69
2022/08/19 06:50:51;;;;;;;4.90;4.43;;;23.90;61.20;;;;;;5170624;27;45241;-70
2022/08/19 06:53:19;;;;;;;4.35;3.95;;;23.90;61.20;;;;;;5170696;27;45279;-70
2022/08/19 06:55:45;;;;;;;5.00;4.50;;;23.90;61.20;;;;;;5170855;27;45313;-70
2022/08/19 06:58:12;;;;;;;4.45;4.05;;;23.90;61.60;;;;;;5170903;27;45305;-69
2022/08/19 07:00:39;;;;;;;4.60;4.20;;;23.90;61.50;;;;;;5170453;27;46444;-70
2022/08/19 07:03:08;;;;;;;4.63;4.22;;;23.90;61.50;;;;;;5170485;27;45133;-70
2022/08/19 07:05:39;;;;;;;4.57;4.18;;;23.90;61.70;;;;;;5170560;27;45174;-69
2022/08/19 07:08:07;;;;;;;4.65;4.25;;;23.90;61.90;;;;;;5171084;27;45194;-70
2022/08/19 07:10:36;;;;;;;4.78;3.92;;;23.90;62.00;;;;;;5170345;27;45569;-70
2022/08/19 07:13:03;;;;;;;4.55;4.25;;;23.90;62.00;;;;;;5170333;27;45369;-70
2022/08/19 07:15:30;;;;;;;4.78;4.15;;;23.90;61.90;;;;;;5152654;27;45244;-70
2022/08/19 07:17:57;;;;;;;5.05;4.38;;;23.90;62.60;;;;;;5143680;27;45114;-75
2022/08/19 07:20:25;;;;;;;5.80;4.38;;;24.00;63.20;;;;;;5132435;27;46750;-69
2022/08/19 07:22:52;;;;;;;5.53;4.28;;;24.00;63.10;;;;;;5129714;27;45345;-69
2022/08/19 07:25:21;;;;;;;4.93;4.53;;;24.10;63.20;;;;;;5146864;27;45399;-69
2022/08/19 07:27:50;;;;;;;4.57;4.15;;;24.10;62.90;;;;;;5149249;27;45393;-70
2022/08/19 07:30:16;;;;;;;6.43;4.28;;;24.10;63.00;;;;;;5157627;27;45460;-69
2022/08/19 07:32:43;;;;;;;4.45;4.05;;;24.10;63.30;;;;;;5169881;27;45317;-69
2022/08/19 07:35:10;;;;;;;6.53;4.65;;;24.20;62.70;;;;;;5170791;27;45233;-70
2022/08/19 07:37:43;;;;;;;9.00;4.88;;;24.20;62.90;;;;;;5169931;27;45178;-71
2022/08/19 07:40:11;;;;;;;5.15;4.43;;;24.20;63.70;;;;;;5169855;27;46322;-70
2022/08/19 07:42:38;;;;;;;5.28;4.40;;;24.30;63.00;;;;;;5169932;27;45133;-70
2022/08/19 07:45:05;;;;;;;4.70;4.30;;;24.30;62.70;;;;;;5161345;27;45262;-70
2022/08/19 07:47:32;;;;;;;8.48;5.35;;;24.30;62.40;;;;;;5127992;27;45284;-70
2022/08/19 07:49:59;;;;;;;5.85;5.03;;;24.30;64.00;;;;;;5127804;27;46706;-71
2022/08/19 07:52:26;;;;;;;6.85;6.10;;;24.40;64.10;;;;;;5128172;27;45341;-70
2022/08/19 07:54:54;;;;;;;5.95;5.45;;;24.40;65.40;;;;;;5127935;27;45201;-70
2022/08/19 07:57:21;;;;;;;6.32;5.75;;;24.40;65.20;;;;;;5128246;27;45198;-70
2022/08/19 07:59:48;;;;;;;6.13;5.60;;;24.40;65.50;;;;;;5127744;27;46657;-70
2022/08/19 08:02:14;;;;;;;7.40;6.70;;;24.40;65.30;;;;;;5127246;27;45247;-70
2022/08/19 08:10:11;;;;;;;6.18;5.68;;;24.40;66.10;;;;;;5124921;27;45887;-69
2022/08/19 08:12:40;;;;;;;6.20;5.70;;;24.40;65.60;;;;;;5127720;27;45140;-70
2022/08/19 08:15:09;;;;;;;6.93;6.00;;;24.40;65.90;;;;;;5127406;27;45416;-70
2022/08/19 08:17:36;;;;;;;7.35;6.65;;;24.40;65.70;;;;;;5127515;27;45359;-70
2022/08/19 08:20:06;;;;;;;6.57;5.97;;;24.40;66.00;;;;;;5127389;27;46925;-70
2022/08/19 08:25:22;;;;;;;6.25;5.65;;;24.40;65.70;;;;;;5141245;27;45215;-70
2022/08/19 08:27:49;;;;;;;6.85;6.25;;;24.40;65.40;;;;;;5148591;27;45231;-69
2022/08/19 08:30:17;;;;;;;7.50;6.70;;;24.40;65.60;;;;;;5156899;27;45271;-70
2022/08/19 08:32:44;;;;;;;7.40;6.60;;;24.40;65.80;;;;;;5168975;27;45396;-70
2022/08/19 08:35:14;;;;;;;8.10;7.30;;;24.50;65.70;;;;;;5168914;27;45274;-70
2022/08/19 08:37:41;;;;;;;8.05;7.22;;;24.40;65.50;;;;;;5168845;27;45444;-70
2022/08/19 08:40:14;;;;;;;7.30;6.60;;;24.40;65.60;;;;;;5156750;27;47077;-69
2022/08/19 08:42:48;;;;;;;8.35;7.55;;;24.50;65.70;;;;;;5147780;27;45392;-70
2022/08/19 08:45:16;;;;;;;9.13;7.60;;;24.40;65.20;;;;;;5147768;27;45321;-70
2022/08/19 08:47:46;;;;;;;9.13;7.90;;;24.50;65.10;;;;;;5147868;27;45347;-69
2022/08/19 08:50:15;;;;;;;8.43;7.53;;;24.40;65.10;;;;;;5147225;27;46918;-70
2022/08/19 08:52:43;;;;;;;8.95;7.90;;;24.40;65.60;;;;;;5147307;27;45382;-70
2022/08/19 08:55:12;;;;;;;10.10;7.95;;;24.40;65.50;;;;;;5147519;27;45399;-70
2022/08/19 08:57:42;;;;;;;9.50;8.52;;;24.50;65.20;;;;;;5147465;27;45418;-69
2022/08/19 09:00:13;;;;;;;10.65;9.52;;;24.50;65.10;;;;;;5145815;27;47566;-70
2022/08/19 09:02:39;;;;;;;9.98;8.98;;;24.50;64.30;;;;;;5146598;27;45258;-69
2022/08/19 09:05:09;;;;;;;9.82;8.82;;;24.40;63.90;;;;;;5146866;27;45503;-69
2022/08/19 09:07:42;;;;;;;10.30;9.25;;;24.50;64.00;;;;;;5147577;27;45264;-69
2022/08/19 09:10:11;;;;;;;9.98;9.00;;;24.50;64.40;;;;;;5147088;27;46366;-69
2022/08/19 09:12:43;;;;;;;11.70;9.52;;;24.50;64.00;;;;;;5147178;27;45260;-69
2022/08/19 09:15:13;;;;;;;10.10;9.10;;;24.40;64.00;;;;;;5147175;27;45313;-70
2022/08/19 09:17:39;;;;;;;10.30;8.52;;;24.40;64.40;;;;;;5147535;27;45402;-69
2022/08/19 09:20:18;;;;;;;10.10;9.10;;;24.40;63.70;;;;;;5146391;27;45374;-70
2022/08/19 09:22:46;;;;;;;10.45;9.43;;;24.50;64.00;;;;;;5143769;27;45482;-69
2022/08/19 09:25:16;;;;;;;11.70;10.50;;;24.50;63.60;;;;;;5140448;27;45530;-69
2022/08/19 09:27:43;;;;;;;10.55;9.45;;;24.50;63.60;;;;;;5146962;27;45407;-69
2022/08/19 09:30:14;;;;;;;10.38;9.38;;;24.40;63.00;;;;;;5148750;27;46746;-69
2022/08/19 09:32:42;;;;;;;12.25;10.88;;;24.50;63.10;;;;;;5125700;27;45208;-69
2022/08/19 09:35:09;;;;;;;11.48;10.35;;;24.50;63.70;;;;;;5126162;27;45293;-70
2022/08/19 09:37:36;;;;;;;10.55;9.55;;;24.50;63.50;;;;;;5126513;27;45149;-69
2022/08/19 09:40:04;;;;;;;10.63;9.18;;;24.50;63.10;;;;;;5126071;27;46711;-69
2022/08/19 09:42:31;;;;;;;10.85;9.75;;;24.50;63.30;;;;;;5126250;27;45293;-69
2022/08/19 09:44:58;;;;;;;13.25;10.60;;;24.50;63.40;;;;;;5126333;27;45283;-69
2022/08/19 09:47:26;;;;;;;11.10;9.20;;;24.50;63.50;;;;;;5127988;27;45268;-69
2022/08/19 09:49:57;;;;;;;12.10;10.77;;;24.50;63.80;;;;;;5129563;27;46382;-69
2022/08/19 09:52:24;;;;;;;12.18;9.63;;;24.60;62.80;;;;;;5129695;27;45273;-69
2022/08/19 09:54:53;;;;;;;10.32;9.32;;;24.50;62.80;;;;;;5132021;27;45319;-69
2022/08/19 09:57:19;;;;;;;12.52;10.60;;;24.60;62.90;;;;;;5150454;27;45361;-69
2022/08/19 09:59:47;;;;;;;12.50;11.20;;;24.50;62.70;;;;;;5149157;27;45445;-69
2022/08/19 10:02:14;;;;;;;11.80;10.60;;;24.50;61.90;;;;;;5129168;27;45416;-70
2022/08/19 10:07:26;;;;;;;12.00;10.77;;;24.50;61.90;;;;;;5150972;27;45304;-69
2022/08/19 10:09:53;;;;;;;12.60;10.65;;;24.50;62.00;;;;;;5130530;27;46661;-69
2022/08/19 10:12:21;;;;;;;15.05;11.80;;;24.50;62.10;;;;;;5129737;27;45237;-69
2022/08/19 10:14:47;;;;;;;12.10;10.65;;;24.60;62.10;;;;;;5129318;27;45274;-69
2022/08/19 10:17:14;;;;;;;16.27;12.48;;;24.60;61.50;;;;;;5141065;27;45471;-69
2022/08/19 10:19:43;;;;;;;12.80;11.50;;;24.60;61.40;;;;;;5148315;27;46478;-69
2022/08/19 10:22:10;;;;;;;12.85;11.27;;;24.60;60.90;;;;;;5150104;27;45214;-69
2022/08/19 10:24:38;;;;;;;13.25;11.05;;;24.60;61.00;;;;;;5146979;27;45299;-69
2022/08/19 10:27:05;;;;;;;12.57;10.63;;;24.60;61.40;;;;;;5149881;27;45312;-69
2022/08/19 10:29:34;;;;;;;11.52;9.68;;;24.60;61.60;;;;;;5149636;27;46708;-70
2022/08/19 10:32:01;;;;;;;10.77;9.68;;;24.70;61.50;;;;;;5149706;27;45472;-69
2022/08/19 10:34:28;;;;;;;12.85;10.25;;;24.70;61.40;;;;;;5149949;27;45339;-69
2022/08/19 10:36:56;;;;;;;12.60;10.60;;;24.70;62.10;;;;;;5149699;27;45287;-70
2022/08/19 10:39:24;;;;;;;13.70;10.10;;;24.70;61.80;;;;;;5129382;27;45477;-69
2022/08/19 10:41:51;;;;;;;12.45;11.10;;;24.70;61.60;;;;;;5128856;27;45237;-69
2022/08/19 10:44:18;;;;;;;11.60;10.40;;;24.70;62.00;;;;;;5128856;27;45364;-69
2022/08/19 10:46:46;;;;;;;12.27;9.60;;;24.70;61.90;;;;;;5128992;27;45268;-69
2022/08/19 10:49:13;;;;;;;14.45;10.90;;;24.70;61.90;;;;;;5128459;27;45286;-69
2022/08/19 10:56:50;;;;;;;14.00;10.88;;;24.70;61.60;;;;;;5124958;27;45322;-69
2022/08/19 10:57:12;;;;;;;11.25;10.15;;;24.70;61.40;;;;;;5128631;27;45479;-69
2022/08/19 10:59:39;;;;;;;12.98;11.57;;;24.80;61.50;;;;;;5128446;27;46648;-69
2022/08/19 11:02:09;;;;;;;12.20;11.00;;;24.80;61.50;;;;;;5127311;27;45421;-69
2022/08/19 11:04:36;;;;;;;14.30;10.82;;;24.80;61.40;;;;;;5128521;27;45251;-69
2022/08/19 11:07:03;;;;;;;10.35;9.30;;;24.80;62.20;;;;;;5128439;27;45682;-69
2022/08/19 11:09:31;;;;;;;11.20;10.10;;;24.90;61.40;;;;;;5127716;27;45556;-69
2022/08/19 11:11:58;;;;;;;12.70;11.05;;;24.90;61.80;;;;;;5128511;27;45185;-69
2022/08/19 11:14:25;;;;;;;12.63;11.32;;;24.90;61.30;;;;;;5127991;27;45341;-69
2022/08/19 11:16:55;;;;;;;13.27;10.77;;;25.00;61.40;;;;;;5128817;27;45123;-69
2022/08/19 11:19:23;;;;;;;14.60;12.20;;;25.00;61.10;;;;;;5131024;27;45623;-69
2022/08/19 11:21:50;;;;;;;12.70;11.13;;;25.00;60.60;;;;;;5145993;27;45314;-69
2022/08/19 11:24:23;;;;;;;12.00;10.30;;;25.00;60.50;;;;;;5127894;27;45153;-70
2022/08/19 11:26:52;;;;;;;10.55;9.45;;;25.00;60.60;;;;;;5127996;27;45209;-69
2022/08/19 11:29:19;;;;;;;10.45;9.23;;;25.10;60.50;;;;;;5128181;27;46688;-69
2022/08/19 11:31:49;;;;;;;10.80;9.10;;;25.10;60.40;;;;;;5148740;27;45326;-69
2022/08/19 11:34:17;;;;;;;11.90;10.70;;;25.20;60.20;;;;;;5149046;27;45212;-69
2022/08/19 11:36:44;;;;;;;12.95;10.55;;;25.20;60.10;;;;;;5148875;27;45267;-70
2022/08/19 11:39:12;;;;;;;14.50;12.07;;;25.20;59.80;;;;;;5143774;27;46400;-69
2022/08/19 11:41:39;;;;;;;15.20;10.88;;;25.20;59.70;;;;;;5148189;27;45217;-70
2022/08/19 11:44:08;;;;;;;16.20;12.52;;;25.20;59.70;;;;;;5148935;27;45340;-69
2022/08/19 11:46:35;;;;;;;15.90;13.52;;;25.30;59.30;;;;;;5148972;27;45455;-70
2022/08/19 11:49:09;;;;;;;14.10;12.10;;;25.30;60.10;;;;;;5148507;27;46644;-69
2022/08/19 11:51:36;;;;;;;15.05;11.20;;;25.30;59.40;;;;;;5148535;27;45243;-69
2022/08/19 11:54:04;;;;;;;12.00;10.73;;;25.30;59.60;;;;;;5148222;27;45305;-69
2022/08/19 11:56:31;;;;;;;14.05;12.10;;;25.30;59.30;;;;;;5148929;27;45205;-70
2022/08/19 11:58:58;;;;;;;13.82;11.90;;;25.40;59.20;;;;;;5148218;27;46391;-69
2022/08/19 12:01:26;;;;;;;15.45;13.18;;;25.40;58.80;;;;;;5148330;27;45505;-69
2022/08/19 12:03:54;;;;;;;15.02;12.93;;;25.40;59.00;;;;;;5148603;27;45316;-69
2022/08/19 12:06:23;;;;;;;14.80;11.88;;;25.40;58.20;;;;;;5148693;27;45454;-69
2022/08/19 12:08:50;;;;;;;12.52;10.82;;;25.40;58.00;;;;;;5147954;27;46605;-69
2022/08/19 12:11:17;;;;;;;15.35;11.85;;;25.40;57.80;;;;;;5145962;27;45392;-69
2022/08/19 12:13:45;;;;;;;16.38;11.65;;;25.40;57.50;;;;;;5126433;27;45411;-70
2022/08/19 12:16:13;;;;;;;13.02;11.48;;;25.40;57.40;;;;;;5127751;27;45180;-69
2022/08/19 12:18:43;;;;;;;13.48;10.38;;;25.40;57.30;;;;;;5127244;27;46986;-69
2022/08/19 12:21:10;;;;;;;13.07;11.43;;;25.50;57.40;;;;;;5118710;27;45246;-69
2022/08/19 12:23:37;;;;;;;11.38;9.80;;;25.50;57.40;;;;;;5127444;27;45236;-69
2022/08/19 12:26:05;;;;;;;10.38;9.30;;;25.50;57.40;;;;;;5127925;27;45326;-70
2022/08/19 12:28:31;;;;;;;12.57;11.00;;;25.50;57.40;;;;;;5146961;27;45309;-70
2022/08/19 12:30:58;;;;;;;11.00;9.90;;;25.60;57.60;;;;;;5162821;27;45289;-69
2022/08/19 12:33:27;;;;;;;11.68;10.32;;;25.60;57.10;;;;;;5169199;27;45221;-69
2022/08/19 12:35:56;;;;;;;12.10;10.80;;;25.60;57.00;;;;;;5169413;27;45374;-70
2022/08/19 12:38:24;;;;;;;12.85;11.40;;;25.70;57.50;;;;;;5112677;27;45356;-69
2022/08/19 12:40:51;;;;;;;11.60;10.40;;;25.60;57.10;;;;;;5105531;27;45398;-69
2022/08/19 12:43:19;;;;;;;12.27;11.07;;;25.60;57.30;;;;;;5106541;27;45271;-69
2022/08/19 12:45:46;;;;;;;13.88;10.60;;;25.60;57.80;;;;;;5103163;27;44766;-69
2022/08/19 12:48:13;;;;;;;12.55;10.68;;;25.60;57.50;;;;;;5116565;27;46404;-69
2022/08/19 12:50:46;;;;;;;12.57;10.95;;;25.60;57.30;;;;;;5114652;27;45258;-69
2022/08/19 12:53:15;;;;;;;14.20;11.10;;;25.70;56.70;;;;;;5106492;27;45303;-69
2022/08/19 12:55:43;;;;;;;14.88;10.43;;;25.70;56.50;;;;;;5140391;27;45236;-69
2022/08/19 12:58:10;;;;;;;12.10;10.13;;;25.80;56.80;;;;;;5147687;27;45516;-69
2022/08/19 13:00:37;;;;;;;11.43;10.30;;;25.80;56.70;;;;;;5147577;27;45367;-69
2022/08/19 13:03:03;;;;;;;10.73;9.63;;;25.80;56.90;;;;;;5147474;27;45295;-70
2022/08/19 13:05:33;;;;;;;11.45;10.30;;;25.80;56.40;;;;;;5147981;27;45437;-69